createdAt,value
2022-11-08T00:10:44.154Z,8.44
2022-11-08T00:25:55.435Z,8.50
2022-11-08T00:41:00.922Z,8.50
2022-11-08T00:56:08.943Z,8.31
2022-11-08T01:11:16.869Z,8.25
2022-11-08T01:26:24.285Z,8.25
2022-11-08T01:41:30.241Z,8.19
2022-11-08T01:56:36.597Z,8.25
2022-11-08T02:11:43.634Z,8.25
2022-11-08T02:26:51.634Z,8.31
2022-11-08T02:41:57.216Z,8.25
2022-11-08T02:57:02.692Z,8.31
2022-11-08T03:12:09.187Z,8.19
2022-11-08T03:27:15.684Z,8.13
2022-11-08T03:42:21.398Z,8.00
2022-11-08T03:57:26.912Z,7.81
2022-11-08T04:12:58.153Z,7.69
2022-11-08T04:28:04.003Z,7.69
2022-11-08T04:43:09.783Z,7.94
2022-11-08T04:58:15.769Z,8.00
2022-11-08T05:13:21.745Z,8.06
2022-11-08T05:28:27.353Z,8.19
2022-11-08T05:43:33.672Z,8.13
2022-11-08T05:58:39.254Z,8.00
2022-11-08T06:13:45.433Z,8.13
2022-11-08T06:28:51.206Z,8.13
2022-11-08T06:43:57.329Z,8.13
2022-11-08T06:59:03.160Z,8.06
2022-11-08T07:14:08.814Z,8.56
2022-11-08T07:29:16.164Z,8.75
2022-11-08T07:44:22.154Z,8.94
2022-11-08T07:59:27.886Z,9.19
2022-11-08T08:14:33.529Z,9.63
2022-11-08T08:29:39.342Z,9.94
2022-11-08T08:44:45.103Z,10.50
2022-11-08T09:15:16.598Z,10.63
2022-11-08T09:30:22.323Z,9.94
2022-11-08T09:45:33.480Z,9.75
2022-11-08T10:00:41.953Z,10.31
2022-11-08T10:15:55.074Z,10.63
2022-11-08T10:31:01.617Z,10.81
2022-11-08T10:46:17.631Z,11.00
2022-11-08T11:01:25.779Z,11.50
2022-11-08T11:16:31.728Z,11.88
2022-11-08T11:31:40.391Z,11.94
2022-11-08T11:46:52.758Z,11.56
2022-11-08T12:02:19.861Z,11.50
2022-11-08T12:18:00.237Z,11.69
2022-11-08T12:33:19.150Z,11.94
2022-11-08T12:48:54.882Z,11.63
2022-11-08T13:04:37.657Z,11.81
2022-11-08T13:20:07.783Z,11.75
2022-11-08T13:35:22.414Z,11.56
2022-11-08T13:50:58.127Z,11.81
2022-11-08T14:06:10.123Z,11.94
2022-11-08T14:21:20.749Z,11.94
2022-11-08T14:36:28.389Z,11.94
2022-11-08T14:51:34.286Z,11.88
2022-11-08T15:06:43.628Z,11.88
2022-11-08T15:21:51.125Z,11.50
2022-11-08T15:36:56.885Z,11.19
2022-11-08T15:52:03.948Z,10.94
2022-11-08T16:07:09.664Z,10.63
2022-11-08T16:22:19.050Z,10.38
2022-11-08T16:37:25.194Z,10.13
2022-11-08T16:52:30.847Z,10.19
2022-11-08T17:07:36.656Z,10.06
2022-11-08T17:22:43.268Z,9.94
2022-11-08T17:37:49.128Z,10.06
2022-11-08T17:52:56.925Z,10.13
2022-11-08T18:08:02.966Z,9.94
2022-11-08T18:23:08.554Z,10.00
2022-11-08T18:38:14.875Z,10.31
2022-11-08T18:53:21.836Z,10.44
2022-11-08T19:08:30.883Z,10.50
2022-11-08T19:23:38.697Z,10.38
2022-11-08T19:38:44.922Z,10.38
2022-11-08T19:53:51.228Z,10.25
2022-11-08T20:08:57.908Z,10.06
2022-11-08T20:24:03.571Z,9.94
2022-11-08T20:39:09.170Z,10.25
2022-11-08T20:54:16.984Z,10.06
2022-11-08T21:09:49.678Z,10.00
2022-11-08T21:24:50.341Z,10.06
2022-11-08T21:39:56.177Z,9.94
2022-11-08T21:55:01.839Z,9.94
2022-11-08T22:10:11.996Z,9.88
2022-11-08T22:25:18.083Z,9.56
2022-11-08T22:40:23.899Z,9.44
2022-11-08T22:55:29.849Z,9.56
2022-11-08T23:10:56.244Z,9.38
2022-11-08T23:26:02.123Z,9.38
2022-11-08T23:41:25.132Z,9.63
2022-11-08T23:56:31.226Z,9.94
